sensor_id;sensor_type;location;lat;lon;timestamp;temperature;humidity
14014;DHT22;49110;52.584;13.408;2023-05-29T00:00:26;16.80;72.90
14014;DHT22;49110;52.584;13.408;2023-05-29T00:01:26;16.80;73.00
14014;DHT22;49110;52.584;13.408;2023-05-29T00:02:27;16.70;72.90
14014;DHT22;49110;52.584;13.408;2023-05-29T00:03:27;16.70;73.20
14014;DHT22;49110;52.584;13.408;2023-05-29T00:04:29;16.70;73.40
14014;DHT22;49110;52.584;13.408;2023-05-29T00:05:29;16.70;73.50
14014;DHT22;49110;52.584;13.408;2023-05-29T00:06:30;16.60;73.50
14014;DHT22;49110;52.584;13.408;2023-05-29T00:07:31;16.60;73.60
14014;DHT22;49110;52.584;13.408;2023-05-29T00:08:32;16.60;73.70
14014;DHT22;49110;52.584;13.408;2023-05-29T00:09:33;16.50;73.70
14014;DHT22;49110;52.584;13.408;2023-05-29T00:10:34;16.60;73.90
14014;DHT22;49110;52.584;13.408;2023-05-29T00:11:35;16.60;73.90
14014;DHT22;49110;52.584;13.408;2023-05-29T00:12:37;16.60;74.00
14014;DHT22;49110;52.584;13.408;2023-05-29T00:13:37;16.50;74.00
14014;DHT22;49110;52.584;13.408;2023-05-29T00:14:38;16.50;74.20
14014;DHT22;49110;52.584;13.408;2023-05-29T00:15:38;16.40;74.30
14014;DHT22;49110;52.584;13.408;2023-05-29T00:16:39;16.30;74.40
14014;DHT22;49110;52.584;13.408;2023-05-29T00:17:39;16.40;74.60
14014;DHT22;49110;52.584;13.408;2023-05-29T00:18:40;16.40;74.50
14014;DHT22;49110;52.584;13.408;2023-05-29T00:19:45;16.50;74.50
14014;DHT22;49110;52.584;13.408;2023-05-29T00:20:45;16.40;74.50
14014;DHT22;49110;52.584;13.408;2023-05-29T00:21:46;16.40;74.40
14014;DHT22;49110;52.584;13.408;2023-05-29T00:22:48;16.40;74.50
14014;DHT22;49110;52.584;13.408;2023-05-29T00:23:48;16.40;74.50
14014;DHT22;49110;52.584;13.408;2023-05-29T00:24:49;16.40;74.60
14014;DHT22;49110;52.584;13.408;2023-05-29T00:25:49;16.40;74.80
14014;DHT22;49110;52.584;13.408;2023-05-29T00:26:50;16.40;74.70
14014;DHT22;49110;52.584;13.408;2023-05-29T00:27:50;16.40;74.80
14014;DHT22;49110;52.584;13.408;2023-05-29T00:28:51;16.30;74.80
14014;DHT22;49110;52.584;13.408;2023-05-29T00:29:51;16.30;74.90
14014;DHT22;49110;52.584;13.408;2023-05-29T00:30:52;16.30;75.00
14014;DHT22;49110;52.584;13.408;2023-05-29T00:31:52;16.20;75.00
14014;DHT22;49110;52.584;13.408;2023-05-29T00:32:53;16.30;75.10
14014;DHT22;49110;52.584;13.408;2023-05-29T00:33:54;16.30;75.10
14014;DHT22;49110;52.584;13.408;2023-05-29T00:34:55;16.20;75.00
14014;DHT22;49110;52.584;13.408;2023-05-29T00:35:56;16.20;75.10
14014;DHT22;49110;52.584;13.408;2023-05-29T00:36:56;16.20;75.30
14014;DHT22;49110;52.584;13.408;2023-05-29T00:37:58;16.20;75.30
14014;DHT22;49110;52.584;13.408;2023-05-29T00:38:58;16.20;75.20
14014;DHT22;49110;52.584;13.408;2023-05-29T00:39:59;16.20;75.20
14014;DHT22;49110;52.584;13.408;2023-05-29T00:40:59;16.20;75.20
14014;DHT22;49110;52.584;13.408;2023-05-29T00:41:59;16.20;75.20
14014;DHT22;49110;52.584;13.408;2023-05-29T00:43:00;16.20;75.00
14014;DHT22;49110;52.584;13.408;2023-05-29T00:44:00;16.20;75.00
14014;DHT22;49110;52.584;13.408;2023-05-29T00:45:01;16.20;75.00
14014;DHT22;49110;52.584;13.408;2023-05-29T00:46:01;16.20;75.00
14014;DHT22;49110;52.584;13.408;2023-05-29T00:47:02;16.20;75.10
14014;DHT22;49110;52.584;13.408;2023-05-29T00:48:04;16.20;75.20
14014;DHT22;49110;52.584;13.408;2023-05-29T00:49:05;16.20;75.10
14014;DHT22;49110;52.584;13.408;2023-05-29T00:50:06;16.20;75.00
14014;DHT22;49110;52.584;13.408;2023-05-29T00:51:10;16.20;75.20
14014;DHT22;49110;52.584;13.408;2023-05-29T00:52:11;16.20;75.10
14014;DHT22;49110;52.584;13.408;2023-05-29T00:53:13;16.20;75.30
14014;DHT22;49110;52.584;13.408;2023-05-29T00:54:22;16.10;75.30
14014;DHT22;49110;52.584;13.408;2023-05-29T00:55:23;16.10;75.50
14014;DHT22;49110;52.584;13.408;2023-05-29T00:56:24;16.10;75.50
14014;DHT22;49110;52.584;13.408;2023-05-29T00:57:25;16.10;75.60
14014;DHT22;49110;52.584;13.408;2023-05-29T00:58:26;16.10;75.50
14014;DHT22;49110;52.584;13.408;2023-05-29T00:59:27;16.10;75.50
14014;DHT22;49110;52.584;13.408;2023-05-29T01:00:28;16.10;75.50
14014;DHT22;49110;52.584;13.408;2023-05-29T01:01:31;16.10;75.50
14014;DHT22;49110;52.584;13.408;2023-05-29T01:02:32;16.10;75.60
14014;DHT22;49110;52.584;13.408;2023-05-29T01:03:33;16.00;75.70
14014;DHT22;49110;52.584;13.408;2023-05-29T01:04:35;16.00;75.80
14014;DHT22;49110;52.584;13.408;2023-05-29T01:05:36;16.00;75.90
14014;DHT22;49110;52.584;13.408;2023-05-29T01:06:37;16.00;76.00
14014;DHT22;49110;52.584;13.408;2023-05-29T01:07:38;16.00;76.00
14014;DHT22;49110;52.584;13.408;2023-05-29T01:08:39;16.00;76.20
14014;DHT22;49110;52.584;13.408;2023-05-29T01:09:39;15.90;76.20
14014;DHT22;49110;52.584;13.408;2023-05-29T01:10:41;15.90;76.40
14014;DHT22;49110;52.584;13.408;2023-05-29T01:12:14;15.90;76.50
14014;DHT22;49110;52.584;13.408;2023-05-29T01:13:21;15.90;76.80
14014;DHT22;49110;52.584;13.408;2023-05-29T01:16:11;15.70;76.70
14014;DHT22;49110;52.584;13.408;2023-05-29T01:17:19;15.60;76.90
14014;DHT22;49110;52.584;13.408;2023-05-29T01:18:51;15.60;77.00
14014;DHT22;49110;52.584;13.408;2023-05-29T01:22:19;15.50;77.40
14014;DHT22;49110;52.584;13.408;2023-05-29T01:24:55;15.50;77.20
14014;DHT22;49110;52.584;13.408;2023-05-29T01:26:21;15.50;77.30
14014;DHT22;49110;52.584;13.408;2023-05-29T01:27:26;15.50;77.30
14014;DHT22;49110;52.584;13.408;2023-05-29T01:28:37;15.40;77.50
14014;DHT22;49110;52.584;13.408;2023-05-29T01:29:42;15.30;77.60
14014;DHT22;49110;52.584;13.408;2023-05-29T01:30:43;15.40;77.80
14014;DHT22;49110;52.584;13.408;2023-05-29T01:31:44;15.30;77.80
14014;DHT22;49110;52.584;13.408;2023-05-29T01:32:46;15.20;77.90
14014;DHT22;49110;52.584;13.408;2023-05-29T01:33:57;15.10;78.00
14014;DHT22;49110;52.584;13.408;2023-05-29T01:34:58;15.10;78.30
14014;DHT22;49110;52.584;13.408;2023-05-29T01:35:59;15.20;78.40
14014;DHT22;49110;52.584;13.408;2023-05-29T01:36:59;15.20;78.40
14014;DHT22;49110;52.584;13.408;2023-05-29T01:38:00;15.20;78.20
14014;DHT22;49110;52.584;13.408;2023-05-29T01:39:00;15.20;78.10
14014;DHT22;49110;52.584;13.408;2023-05-29T01:40:01;15.30;78.10
14014;DHT22;49110;52.584;13.408;2023-05-29T01:41:03;15.30;78.00
14014;DHT22;49110;52.584;13.408;2023-05-29T01:42:05;15.30;78.00
14014;DHT22;49110;52.584;13.408;2023-05-29T01:43:07;15.30;78.10
14014;DHT22;49110;52.584;13.408;2023-05-29T01:44:09;15.30;78.10
14014;DHT22;49110;52.584;13.408;2023-05-29T01:45:10;15.30;78.10
14014;DHT22;49110;52.584;13.408;2023-05-29T01:46:15;15.30;77.90
14014;DHT22;49110;52.584;13.408;2023-05-29T01:47:16;15.30;77.90
14014;DHT22;49110;52.584;13.408;2023-05-29T01:48:17;15.30;78.00
14014;DHT22;49110;52.584;13.408;2023-05-29T01:49:18;15.30;78.10
14014;DHT22;49110;52.584;13.408;2023-05-29T01:50:19;15.30;78.00
14014;DHT22;49110;52.584;13.408;2023-05-29T01:51:20;15.30;78.00
14014;DHT22;49110;52.584;13.408;2023-05-29T01:52:21;15.30;78.10
14014;DHT22;49110;52.584;13.408;2023-05-29T01:53:22;15.30;78.10
14014;DHT22;49110;52.584;13.408;2023-05-29T01:54:23;15.30;77.90
14014;DHT22;49110;52.584;13.408;2023-05-29T01:55:23;15.30;77.90
14014;DHT22;49110;52.584;13.408;2023-05-29T01:56:24;15.30;78.00
14014;DHT22;49110;52.584;13.408;2023-05-29T01:57:27;15.30;77.90
14014;DHT22;49110;52.584;13.408;2023-05-29T01:58:29;15.30;77.90
14014;DHT22;49110;52.584;13.408;2023-05-29T01:59:30;15.30;78.00
14014;DHT22;49110;52.584;13.408;2023-05-29T02:00:30;15.20;77.90
14014;DHT22;49110;52.584;13.408;2023-05-29T02:01:31;15.20;78.10
14014;DHT22;49110;52.584;13.408;2023-05-29T02:02:32;15.20;78.30
14014;DHT22;49110;52.584;13.408;2023-05-29T02:03:36;15.20;78.50
14014;DHT22;49110;52.584;13.408;2023-05-29T02:04:36;15.20;78.50
14014;DHT22;49110;52.584;13.408;2023-05-29T02:05:36;15.20;78.50
14014;DHT22;49110;52.584;13.408;2023-05-29T02:06:37;15.20;78.50
14014;DHT22;49110;52.584;13.408;2023-05-29T02:07:38;15.10;78.50
14014;DHT22;49110;52.584;13.408;2023-05-29T02:08:39;15.10;78.60
14014;DHT22;49110;52.584;13.408;2023-05-29T02:09:39;15.20;78.80
14014;DHT22;49110;52.584;13.408;2023-05-29T02:10:39;15.20;78.80
14014;DHT22;49110;52.584;13.408;2023-05-29T02:11:40;15.20;78.70
14014;DHT22;49110;52.584;13.408;2023-05-29T02:12:45;15.20;78.70
14014;DHT22;49110;52.584;13.408;2023-05-29T02:13:46;15.20;78.60
14014;DHT22;49110;52.584;13.408;2023-05-29T02:14:46;15.20;78.70
14014;DHT22;49110;52.584;13.408;2023-05-29T02:15:47;15.10;78.70
14014;DHT22;49110;52.584;13.408;2023-05-29T02:16:47;15.00;78.80
14014;DHT22;49110;52.584;13.408;2023-05-29T02:17:49;15.10;79.10
14014;DHT22;49110;52.584;13.408;2023-05-29T02:18:50;15.00;79.00
14014;DHT22;49110;52.584;13.408;2023-05-29T02:19:51;15.00;79.00
14014;DHT22;49110;52.584;13.408;2023-05-29T02:20:52;15.00;79.20
14014;DHT22;49110;52.584;13.408;2023-05-29T02:21:53;15.00;79.20
14014;DHT22;49110;52.584;13.408;2023-05-29T02:22:54;14.90;79.10
14014;DHT22;49110;52.584;13.408;2023-05-29T02:23:54;15.00;79.40
14014;DHT22;49110;52.584;13.408;2023-05-29T02:24:55;15.00;79.40
14014;DHT22;49110;52.584;13.408;2023-05-29T02:25:55;14.90;79.40
14014;DHT22;49110;52.584;13.408;2023-05-29T02:26:56;14.90;80.20
14014;DHT22;49110;52.584;13.408;2023-05-29T02:27:56;14.90;79.50
14014;DHT22;49110;52.584;13.408;2023-05-29T02:28:57;14.90;79.50
14014;DHT22;49110;52.584;13.408;2023-05-29T02:29:57;14.90;79.50
14014;DHT22;49110;52.584;13.408;2023-05-29T02:30:58;14.90;79.50
14014;DHT22;49110;52.584;13.408;2023-05-29T02:31:59;14.90;79.80
14014;DHT22;49110;52.584;13.408;2023-05-29T02:32:59;14.90;80.00
14014;DHT22;49110;52.584;13.408;2023-05-29T02:34:00;14.80;80.40
14014;DHT22;49110;52.584;13.408;2023-05-29T02:35:01;14.80;79.90
14014;DHT22;49110;52.584;13.408;2023-05-29T02:36:01;14.80;80.20
14014;DHT22;49110;52.584;13.408;2023-05-29T02:37:02;14.80;80.30
14014;DHT22;49110;52.584;13.408;2023-05-29T02:38:03;14.80;80.40
14014;DHT22;49110;52.584;13.408;2023-05-29T02:39:04;14.80;80.30
14014;DHT22;49110;52.584;13.408;2023-05-29T02:40:05;14.80;80.10
14014;DHT22;49110;52.584;13.408;2023-05-29T02:41:09;14.90;80.10
14014;DHT22;49110;52.584;13.408;2023-05-29T02:42:10;14.80;79.80
14014;DHT22;49110;52.584;13.408;2023-05-29T02:43:12;14.90;79.90
14014;DHT22;49110;52.584;13.408;2023-05-29T02:44:13;14.90;80.00
14014;DHT22;49110;52.584;13.408;2023-05-29T02:45:13;14.90;80.60
14014;DHT22;49110;52.584;13.408;2023-05-29T02:46:14;14.90;79.80
14014;DHT22;49110;52.584;13.408;2023-05-29T02:47:14;14.80;79.70
14014;DHT22;49110;52.584;13.408;2023-05-29T02:48:15;14.90;79.80
14014;DHT22;49110;52.584;13.408;2023-05-29T02:49:15;14.80;79.80
14014;DHT22;49110;52.584;13.408;2023-05-29T02:50:16;14.70;80.20
14014;DHT22;49110;52.584;13.408;2023-05-29T02:51:16;14.60;80.40
14014;DHT22;49110;52.584;13.408;2023-05-29T02:52:17;14.60;80.50
14014;DHT22;49110;52.584;13.408;2023-05-29T02:53:17;14.50;80.50
14014;DHT22;49110;52.584;13.408;2023-05-29T02:54:18;14.40;81.00
14014;DHT22;49110;52.584;13.408;2023-05-29T02:55:19;14.20;81.50
14014;DHT22;49110;52.584;13.408;2023-05-29T02:56:20;14.10;82.00
14014;DHT22;49110;52.584;13.408;2023-05-29T02:57:24;14.10;82.30
14014;DHT22;49110;52.584;13.408;2023-05-29T02:58:25;14.10;82.70
14014;DHT22;49110;52.584;13.408;2023-05-29T02:59:25;14.00;82.80
14014;DHT22;49110;52.584;13.408;2023-05-29T03:00:25;14.00;82.90
14014;DHT22;49110;52.584;13.408;2023-05-29T03:01:26;14.10;82.90
14014;DHT22;49110;52.584;13.408;2023-05-29T03:02:26;14.00;82.90
14014;DHT22;49110;52.584;13.408;2023-05-29T03:03:27;14.00;83.00
14014;DHT22;49110;52.584;13.408;2023-05-29T03:04:27;14.00;83.00
14014;DHT22;49110;52.584;13.408;2023-05-29T03:05:28;13.90;83.30
14014;DHT22;49110;52.584;13.408;2023-05-29T03:06:28;14.00;83.30
14014;DHT22;49110;52.584;13.408;2023-05-29T03:07:29;14.10;83.40
14014;DHT22;49110;52.584;13.408;2023-05-29T03:08:29;14.10;83.10
14014;DHT22;49110;52.584;13.408;2023-05-29T03:09:31;14.00;83.00
14014;DHT22;49110;52.584;13.408;2023-05-29T03:10:31;14.00;83.10
14014;DHT22;49110;52.584;13.408;2023-05-29T03:11:32;14.10;83.10
14014;DHT22;49110;52.584;13.408;2023-05-29T03:12:33;14.10;82.90
14014;DHT22;49110;52.584;13.408;2023-05-29T03:13:33;14.10;82.90
14014;DHT22;49110;52.584;13.408;2023-05-29T03:14:34;14.10;82.90
14014;DHT22;49110;52.584;13.408;2023-05-29T03:15:36;14.00;83.10
14014;DHT22;49110;52.584;13.408;2023-05-29T03:16:36;14.00;83.30
14014;DHT22;49110;52.584;13.408;2023-05-29T03:17:38;13.90;83.40
14014;DHT22;49110;52.584;13.408;2023-05-29T03:18:39;13.80;83.60
14014;DHT22;49110;52.584;13.408;2023-05-29T03:19:39;13.80;83.90
14014;DHT22;49110;52.584;13.408;2023-05-29T03:20:40;13.90;84.00
14014;DHT22;49110;52.584;13.408;2023-05-29T03:21:40;13.90;83.90
14014;DHT22;49110;52.584;13.408;2023-05-29T03:22:41;13.90;84.00
14014;DHT22;49110;52.584;13.408;2023-05-29T03:23:41;14.00;83.80
14014;DHT22;49110;52.584;13.408;2023-05-29T03:24:42;14.00;83.50
14014;DHT22;49110;52.584;13.408;2023-05-29T03:25:42;14.10;83.40
14014;DHT22;49110;52.584;13.408;2023-05-29T03:26:43;14.10;83.40
14014;DHT22;49110;52.584;13.408;2023-05-29T03:27:43;14.20;83.30
14014;DHT22;49110;52.584;13.408;2023-05-29T03:28:44;14.20;83.00
14014;DHT22;49110;52.584;13.408;2023-05-29T03:29:44;14.30;83.00
14014;DHT22;49110;52.584;13.408;2023-05-29T03:30:45;14.30;82.80
14014;DHT22;49110;52.584;13.408;2023-05-29T03:31:45;14.30;82.60
14014;DHT22;49110;52.584;13.408;2023-05-29T03:32:46;14.40;82.50
14014;DHT22;49110;52.584;13.408;2023-05-29T03:33:47;14.40;82.50
14014;DHT22;49110;52.584;13.408;2023-05-29T03:34:48;14.40;82.20
14014;DHT22;49110;52.584;13.408;2023-05-29T03:35:48;14.30;82.20
14014;DHT22;49110;52.584;13.408;2023-05-29T03:36:49;14.30;82.60
14014;DHT22;49110;52.584;13.408;2023-05-29T03:37:49;14.20;82.60
14014;DHT22;49110;52.584;13.408;2023-05-29T03:38:50;14.20;82.90
14014;DHT22;49110;52.584;13.408;2023-05-29T03:39:50;14.20;83.60
14014;DHT22;49110;52.584;13.408;2023-05-29T03:40:50;14.30;83.10
14014;DHT22;49110;52.584;13.408;2023-05-29T03:41:51;14.30;82.80
14014;DHT22;49110;52.584;13.408;2023-05-29T03:42:51;14.20;82.90
14014;DHT22;49110;52.584;13.408;2023-05-29T03:43:52;14.10;83.20
14014;DHT22;49110;52.584;13.408;2023-05-29T03:44:52;14.10;83.50
14014;DHT22;49110;52.584;13.408;2023-05-29T03:45:53;14.20;83.50
14014;DHT22;49110;52.584;13.408;2023-05-29T03:46:53;14.10;83.30
14014;DHT22;49110;52.584;13.408;2023-05-29T03:47:54;14.00;83.60
14014;DHT22;49110;52.584;13.408;2023-05-29T03:48:54;14.00;83.90
14014;DHT22;49110;52.584;13.408;2023-05-29T03:49:54;13.90;84.20
14014;DHT22;49110;52.584;13.408;2023-05-29T03:50:56;13.80;84.50
14014;DHT22;49110;52.584;13.408;2023-05-29T03:51:56;13.90;84.60
14014;DHT22;49110;52.584;13.408;2023-05-29T03:52:57;14.00;84.60
14014;DHT22;49110;52.584;13.408;2023-05-29T03:53:57;14.00;84.60
14014;DHT22;49110;52.584;13.408;2023-05-29T03:54:58;14.10;84.50
14014;DHT22;49110;52.584;13.408;2023-05-29T03:55:58;14.20;84.30
14014;DHT22;49110;52.584;13.408;2023-05-29T03:56:59;14.20;84.10
14014;DHT22;49110;52.584;13.408;2023-05-29T03:58:00;14.20;83.70
14014;DHT22;49110;52.584;13.408;2023-05-29T03:59:00;14.20;83.80
14014;DHT22;49110;52.584;13.408;2023-05-29T04:00:01;14.10;83.80
14014;DHT22;49110;52.584;13.408;2023-05-29T04:01:01;14.10;84.20
14014;DHT22;49110;52.584;13.408;2023-05-29T04:02:02;14.10;84.40
14014;DHT22;49110;52.584;13.408;2023-05-29T04:03:03;14.20;84.60
14014;DHT22;49110;52.584;13.408;2023-05-29T04:04:04;14.00;84.20
14014;DHT22;49110;52.584;13.408;2023-05-29T04:05:06;14.00;84.40
14014;DHT22;49110;52.584;13.408;2023-05-29T04:06:06;14.00;84.70
14014;DHT22;49110;52.584;13.408;2023-05-29T04:07:07;14.00;84.70
14014;DHT22;49110;52.584;13.408;2023-05-29T04:08:07;14.10;84.80
14014;DHT22;49110;52.584;13.408;2023-05-29T04:09:09;14.10;84.80
14014;DHT22;49110;52.584;13.408;2023-05-29T04:10:09;14.20;84.90
14014;DHT22;49110;52.584;13.408;2023-05-29T04:11:10;14.20;84.70
14014;DHT22;49110;52.584;13.408;2023-05-29T04:12:12;14.20;84.90
14014;DHT22;49110;52.584;13.408;2023-05-29T04:13:13;14.20;84.80
14014;DHT22;49110;52.584;13.408;2023-05-29T04:14:14;14.30;84.70
14014;DHT22;49110;52.584;13.408;2023-05-29T04:15:14;14.30;84.90
14014;DHT22;49110;52.584;13.408;2023-05-29T04:16:15;14.30;84.90
14014;DHT22;49110;52.584;13.408;2023-05-29T04:17:16;14.40;84.70
14014;DHT22;49110;52.584;13.408;2023-05-29T04:18:16;14.50;84.00
14014;DHT22;49110;52.584;13.408;2023-05-29T04:19:16;14.50;83.90
14014;DHT22;49110;52.584;13.408;2023-05-29T04:20:17;14.40;83.90
14014;DHT22;49110;52.584;13.408;2023-05-29T04:21:17;14.30;84.00
14014;DHT22;49110;52.584;13.408;2023-05-29T04:22:18;14.40;84.50
14014;DHT22;49110;52.584;13.408;2023-05-29T04:23:19;14.40;84.40
14014;DHT22;49110;52.584;13.408;2023-05-29T04:24:20;14.40;84.50
14014;DHT22;49110;52.584;13.408;2023-05-29T04:25:21;14.40;84.70
14014;DHT22;49110;52.584;13.408;2023-05-29T04:26:22;14.40;85.00
14014;DHT22;49110;52.584;13.408;2023-05-29T04:27:26;14.20;84.90
14014;DHT22;49110;52.584;13.408;2023-05-29T04:28:26;14.20;85.30
14014;DHT22;49110;52.584;13.408;2023-05-29T04:29:28;14.30;85.60
14014;DHT22;49110;52.584;13.408;2023-05-29T04:30:28;14.30;85.40
14014;DHT22;49110;52.584;13.408;2023-05-29T04:31:29;14.50;85.20
14014;DHT22;49110;52.584;13.408;2023-05-29T04:32:30;14.50;85.00
14014;DHT22;49110;52.584;13.408;2023-05-29T04:33:32;14.60;85.20
14014;DHT22;49110;52.584;13.408;2023-05-29T04:34:33;14.70;84.60
14014;DHT22;49110;52.584;13.408;2023-05-29T04:35:34;14.70;84.30
14014;DHT22;49110;52.584;13.408;2023-05-29T04:36:35;14.70;83.90
14014;DHT22;49110;52.584;13.408;2023-05-29T04:37:37;14.70;84.00
14014;DHT22;49110;52.584;13.408;2023-05-29T04:38:38;14.80;84.00
14014;DHT22;49110;52.584;13.408;2023-05-29T04:39:39;14.80;83.90
14014;DHT22;49110;52.584;13.408;2023-05-29T04:40:40;14.90;83.70
14014;DHT22;49110;52.584;13.408;2023-05-29T04:41:42;14.90;83.70
14014;DHT22;49110;52.584;13.408;2023-05-29T04:42:43;15.00;83.60
14014;DHT22;49110;52.584;13.408;2023-05-29T04:43:45;14.90;83.20
14014;DHT22;49110;52.584;13.408;2023-05-29T04:44:46;14.90;83.40
14014;DHT22;49110;52.584;13.408;2023-05-29T04:45:47;14.90;83.70
14014;DHT22;49110;52.584;13.408;2023-05-29T04:46:48;14.90;83.50
14014;DHT22;49110;52.584;13.408;2023-05-29T04:47:52;14.80;83.60
14014;DHT22;49110;52.584;13.408;2023-05-29T04:48:53;14.70;84.10
14014;DHT22;49110;52.584;13.408;2023-05-29T04:49:54;14.70;84.30
14014;DHT22;49110;52.584;13.408;2023-05-29T04:50:54;14.70;84.10
14014;DHT22;49110;52.584;13.408;2023-05-29T04:51:55;14.70;84.30
14014;DHT22;49110;52.584;13.408;2023-05-29T04:52:55;14.70;84.60
14014;DHT22;49110;52.584;13.408;2023-05-29T04:53:56;14.80;84.50
14014;DHT22;49110;52.584;13.408;2023-05-29T04:54:57;14.70;84.40
14014;DHT22;49110;52.584;13.408;2023-05-29T04:55:57;14.80;84.90
14014;DHT22;49110;52.584;13.408;2023-05-29T04:56:58;14.90;85.00
14014;DHT22;49110;52.584;13.408;2023-05-29T04:57:58;14.90;84.10
14014;DHT22;49110;52.584;13.408;2023-05-29T04:58:58;14.80;84.20
14014;DHT22;49110;52.584;13.408;2023-05-29T04:59:59;14.70;84.10
14014;DHT22;49110;52.584;13.408;2023-05-29T05:00:59;14.60;84.50
14014;DHT22;49110;52.584;13.408;2023-05-29T05:02:00;14.40;85.10
14014;DHT22;49110;52.584;13.408;2023-05-29T05:03:01;14.40;85.60
14014;DHT22;49110;52.584;13.408;2023-05-29T05:04:02;14.40;86.10
14014;DHT22;49110;52.584;13.408;2023-05-29T05:05:02;14.50;86.10
14014;DHT22;49110;52.584;13.408;2023-05-29T05:06:03;14.50;86.10
14014;DHT22;49110;52.584;13.408;2023-05-29T05:07:05;14.60;86.00
14014;DHT22;49110;52.584;13.408;2023-05-29T05:08:05;14.70;86.00
14014;DHT22;49110;52.584;13.408;2023-05-29T05:09:06;14.80;85.60
14014;DHT22;49110;52.584;13.408;2023-05-29T05:10:07;14.80;85.60
14014;DHT22;49110;52.584;13.408;2023-05-29T05:11:07;14.90;85.50
14014;DHT22;49110;52.584;13.408;2023-05-29T05:12:08;14.90;85.70
14014;DHT22;49110;52.584;13.408;2023-05-29T05:13:08;14.90;85.70
14014;DHT22;49110;52.584;13.408;2023-05-29T05:14:09;14.90;85.40
14014;DHT22;49110;52.584;13.408;2023-05-29T05:15:10;14.90;85.60
14014;DHT22;49110;52.584;13.408;2023-05-29T05:16:10;15.00;85.70
14014;DHT22;49110;52.584;13.408;2023-05-29T05:17:11;15.00;85.60
14014;DHT22;49110;52.584;13.408;2023-05-29T05:18:11;15.00;85.80
14014;DHT22;49110;52.584;13.408;2023-05-29T05:19:12;15.00;85.70
14014;DHT22;49110;52.584;13.408;2023-05-29T05:20:12;15.10;85.30
14014;DHT22;49110;52.584;13.408;2023-05-29T05:21:13;15.10;85.40
14014;DHT22;49110;52.584;13.408;2023-05-29T05:22:13;15.10;85.40
14014;DHT22;49110;52.584;13.408;2023-05-29T05:23:14;15.20;85.50
14014;DHT22;49110;52.584;13.408;2023-05-29T05:24:15;15.20;85.20
14014;DHT22;49110;52.584;13.408;2023-05-29T05:25:15;15.20;85.50
14014;DHT22;49110;52.584;13.408;2023-05-29T05:26:16;15.20;85.20
14014;DHT22;49110;52.584;13.408;2023-05-29T05:27:16;15.30;85.30
14014;DHT22;49110;52.584;13.408;2023-05-29T05:28:16;15.30;85.10
14014;DHT22;49110;52.584;13.408;2023-05-29T05:29:17;15.30;84.60
14014;DHT22;49110;52.584;13.408;2023-05-29T05:30:18;15.30;84.90
14014;DHT22;49110;52.584;13.408;2023-05-29T05:31:19;15.30;85.00
14014;DHT22;49110;52.584;13.408;2023-05-29T05:32:19;15.30;83.90
14014;DHT22;49110;52.584;13.408;2023-05-29T05:33:20;15.40;83.90
14014;DHT22;49110;52.584;13.408;2023-05-29T05:34:20;15.40;83.70
14014;DHT22;49110;52.584;13.408;2023-05-29T05:35:21;15.40;84.20
14014;DHT22;49110;52.584;13.408;2023-05-29T05:36:21;15.40;84.50
14014;DHT22;49110;52.584;13.408;2023-05-29T05:37:22;15.50;83.90
14014;DHT22;49110;52.584;13.408;2023-05-29T05:38:23;15.50;82.80
14014;DHT22;49110;52.584;13.408;2023-05-29T05:39:23;15.40;83.10
14014;DHT22;49110;52.584;13.408;2023-05-29T05:40:25;15.40;83.30
14014;DHT22;49110;52.584;13.408;2023-05-29T05:41:26;15.50;83.80
14014;DHT22;49110;52.584;13.408;2023-05-29T05:42:27;15.40;82.30
14014;DHT22;49110;52.584;13.408;2023-05-29T05:43:27;15.50;82.30
14014;DHT22;49110;52.584;13.408;2023-05-29T05:44:29;15.50;82.70
14014;DHT22;49110;52.584;13.408;2023-05-29T05:45:29;15.60;83.10
14014;DHT22;49110;52.584;13.408;2023-05-29T05:46:30;15.60;82.70
14014;DHT22;49110;52.584;13.408;2023-05-29T05:47:30;15.70;82.90
14014;DHT22;49110;52.584;13.408;2023-05-29T05:48:31;15.80;83.00
14014;DHT22;49110;52.584;13.408;2023-05-29T05:49:31;15.90;82.50
14014;DHT22;49110;52.584;13.408;2023-05-29T05:50:32;15.90;83.00
14014;DHT22;49110;52.584;13.408;2023-05-29T05:51:33;16.00;82.70
14014;DHT22;49110;52.584;13.408;2023-05-29T05:52:34;16.10;82.90
14014;DHT22;49110;52.584;13.408;2023-05-29T05:53:34;16.10;82.30
14014;DHT22;49110;52.584;13.408;2023-05-29T05:54:35;16.10;82.30
14014;DHT22;49110;52.584;13.408;2023-05-29T05:55:35;16.20;82.70
14014;DHT22;49110;52.584;13.408;2023-05-29T05:56:35;16.20;82.20
14014;DHT22;49110;52.584;13.408;2023-05-29T05:57:36;16.30;82.70
14014;DHT22;49110;52.584;13.408;2023-05-29T05:58:36;16.40;82.10
14014;DHT22;49110;52.584;13.408;2023-05-29T05:59:37;16.40;80.70
14014;DHT22;49110;52.584;13.408;2023-05-29T06:00:39;16.40;80.30
14014;DHT22;49110;52.584;13.408;2023-05-29T06:01:40;16.40;80.40
14014;DHT22;49110;52.584;13.408;2023-05-29T06:02:41;16.50;80.10
14014;DHT22;49110;52.584;13.408;2023-05-29T06:03:42;16.40;80.50
14014;DHT22;49110;52.584;13.408;2023-05-29T06:04:43;16.50;80.90
14014;DHT22;49110;52.584;13.408;2023-05-29T06:05:44;16.60;81.30
14014;DHT22;49110;52.584;13.408;2023-05-29T06:06:44;16.60;79.90
14014;DHT22;49110;52.584;13.408;2023-05-29T06:07:45;16.60;79.20
14014;DHT22;49110;52.584;13.408;2023-05-29T06:08:46;16.60;79.40
14014;DHT22;49110;52.584;13.408;2023-05-29T06:09:47;16.70;79.60
14014;DHT22;49110;52.584;13.408;2023-05-29T06:10:47;16.90;78.80
14014;DHT22;49110;52.584;13.408;2023-05-29T06:11:48;16.70;76.70
14014;DHT22;49110;52.584;13.408;2023-05-29T06:12:48;16.80;77.40
14014;DHT22;49110;52.584;13.408;2023-05-29T06:13:49;16.80;77.50
14014;DHT22;49110;52.584;13.408;2023-05-29T06:14:49;16.90;77.70
14014;DHT22;49110;52.584;13.408;2023-05-29T06:15:50;16.90;78.00
14014;DHT22;49110;52.584;13.408;2023-05-29T06:16:51;17.00;77.70
14014;DHT22;49110;52.584;13.408;2023-05-29T06:17:52;17.00;77.80
14014;DHT22;49110;52.584;13.408;2023-05-29T06:18:55;17.00;76.10
14014;DHT22;49110;52.584;13.408;2023-05-29T06:19:56;16.90;74.90
14014;DHT22;49110;52.584;13.408;2023-05-29T06:20:56;16.80;75.90
14014;DHT22;49110;52.584;13.408;2023-05-29T06:21:57;16.70;74.90
14014;DHT22;49110;52.584;13.408;2023-05-29T06:22:57;16.70;75.60
14014;DHT22;49110;52.584;13.408;2023-05-29T06:23:58;16.70;75.70
14014;DHT22;49110;52.584;13.408;2023-05-29T06:24:58;16.70;75.60
14014;DHT22;49110;52.584;13.408;2023-05-29T06:25:59;16.70;76.30